sensor_id;sensor_type;location;lat;lon;timestamp;P1;durP1;ratioP1;P2;durP2;ratioP2
5774;SDS011;2913;51.120;6.772;2023-03-26T00:02:15;50.95;;;4.40;;
5774;SDS011;2913;51.120;6.772;2023-03-26T00:04:40;65.03;;;4.72;;
5774;SDS011;2913;51.120;6.772;2023-03-26T00:07:06;52.17;;;6.72;;
5774;SDS011;2913;51.120;6.772;2023-03-26T00:09:34;69.32;;;4.57;;
5774;SDS011;2913;51.120;6.772;2023-03-26T00:12:02;52.28;;;5.93;;
5774;SDS011;2913;51.120;6.772;2023-03-26T00:14:28;46.58;;;4.65;;
5774;SDS011;2913;51.120;6.772;2023-03-26T00:16:57;50.17;;;4.68;;
5774;SDS011;2913;51.120;6.772;2023-03-26T00:19:26;61.75;;;3.88;;
5774;SDS011;2913;51.120;6.772;2023-03-26T00:21:51;45.13;;;4.05;;
5774;SDS011;2913;51.120;6.772;2023-03-26T00:24:17;46.55;;;4.15;;
5774;SDS011;2913;51.120;6.772;2023-03-26T00:26:43;50.28;;;4.65;;
5774;SDS011;2913;51.120;6.772;2023-03-26T00:29:17;74.20;;;4.55;;
5774;SDS011;2913;51.120;6.772;2023-03-26T00:31:46;56.95;;;5.43;;
5774;SDS011;2913;51.120;6.772;2023-03-26T00:34:15;68.82;;;7.20;;
5774;SDS011;2913;51.120;6.772;2023-03-26T00:36:42;46.78;;;4.13;;
5774;SDS011;2913;51.120;6.772;2023-03-26T00:39:11;53.83;;;5.70;;
5774;SDS011;2913;51.120;6.772;2023-03-26T00:41:39;72.00;;;6.03;;
5774;SDS011;2913;51.120;6.772;2023-03-26T00:44:10;54.30;;;4.57;;
5774;SDS011;2913;51.120;6.772;2023-03-26T00:46:38;52.90;;;4.60;;
5774;SDS011;2913;51.120;6.772;2023-03-26T00:49:04;50.97;;;5.28;;
5774;SDS011;2913;51.120;6.772;2023-03-26T00:51:30;39.20;;;3.95;;
5774;SDS011;2913;51.120;6.772;2023-03-26T00:53:57;44.30;;;3.83;;
5774;SDS011;2913;51.120;6.772;2023-03-26T00:56:23;57.65;;;4.68;;
5774;SDS011;2913;51.120;6.772;2023-03-26T00:58:49;61.88;;;6.25;;
5774;SDS011;2913;51.120;6.772;2023-03-26T01:01:17;54.20;;;5.18;;
5774;SDS011;2913;51.120;6.772;2023-03-26T01:03:48;61.40;;;6.15;;
5774;SDS011;2913;51.120;6.772;2023-03-26T01:06:23;39.15;;;4.55;;
5774;SDS011;2913;51.120;6.772;2023-03-26T01:08:54;43.58;;;4.45;;
5774;SDS011;2913;51.120;6.772;2023-03-26T01:11:25;37.88;;;4.18;;
5774;SDS011;2913;51.120;6.772;2023-03-26T01:13:55;54.50;;;5.43;;
5774;SDS011;2913;51.120;6.772;2023-03-26T01:16:37;42.35;;;5.47;;
5774;SDS011;2913;51.120;6.772;2023-03-26T01:19:47;48.00;;;4.93;;
5774;SDS011;2913;51.120;6.772;2023-03-26T01:22:18;50.80;;;4.07;;
5774;SDS011;2913;51.120;6.772;2023-03-26T01:24:45;63.95;;;5.18;;
5774;SDS011;2913;51.120;6.772;2023-03-26T01:27:37;42.75;;;4.55;;
5774;SDS011;2913;51.120;6.772;2023-03-26T01:30:25;42.28;;;4.60;;
5774;SDS011;2913;51.120;6.772;2023-03-26T01:41:31;46.35;;;5.93;;
5774;SDS011;2913;51.120;6.772;2023-03-26T01:44:23;50.15;;;5.68;;
5774;SDS011;2913;51.120;6.772;2023-03-26T01:46:58;55.38;;;6.90;;
5774;SDS011;2913;51.120;6.772;2023-03-26T01:49:28;32.53;;;4.97;;
5774;SDS011;2913;51.120;6.772;2023-03-26T01:51:56;56.70;;;4.55;;
5774;SDS011;2913;51.120;6.772;2023-03-26T01:54:23;53.83;;;4.45;;
5774;SDS011;2913;51.120;6.772;2023-03-26T02:01:59;39.97;;;3.70;;
5774;SDS011;2913;51.120;6.772;2023-03-26T02:04:33;48.25;;;3.17;;
5774;SDS011;2913;51.120;6.772;2023-03-26T02:07:06;49.78;;;4.18;;
5774;SDS011;2913;51.120;6.772;2023-03-26T02:09:47;55.28;;;5.25;;
5774;SDS011;2913;51.120;6.772;2023-03-26T02:12:19;45.20;;;4.32;;
5774;SDS011;2913;51.120;6.772;2023-03-26T02:14:46;39.28;;;4.88;;
5774;SDS011;2913;51.120;6.772;2023-03-26T02:17:12;46.75;;;4.07;;
5774;SDS011;2913;51.120;6.772;2023-03-26T02:19:37;47.65;;;3.88;;
5774;SDS011;2913;51.120;6.772;2023-03-26T02:22:09;50.78;;;3.88;;
5774;SDS011;2913;51.120;6.772;2023-03-26T02:24:40;52.95;;;4.35;;
5774;SDS011;2913;51.120;6.772;2023-03-26T02:27:06;67.55;;;5.75;;
5774;SDS011;2913;51.120;6.772;2023-03-26T02:29:34;44.33;;;3.95;;
5774;SDS011;2913;51.120;6.772;2023-03-26T02:32:02;48.72;;;5.50;;
5774;SDS011;2913;51.120;6.772;2023-03-26T02:34:28;63.60;;;4.53;;
5774;SDS011;2913;51.120;6.772;2023-03-26T02:36:57;33.65;;;3.75;;
5774;SDS011;2913;51.120;6.772;2023-03-26T02:39:25;36.38;;;4.10;;
5774;SDS011;2913;51.120;6.772;2023-03-26T02:41:50;42.97;;;3.83;;
5774;SDS011;2913;51.120;6.772;2023-03-26T02:44:19;34.17;;;3.33;;
5774;SDS011;2913;51.120;6.772;2023-03-26T02:46:47;29.13;;;3.75;;
5774;SDS011;2913;51.120;6.772;2023-03-26T02:49:13;45.78;;;4.32;;
5774;SDS011;2913;51.120;6.772;2023-03-26T02:51:39;38.15;;;4.03;;
5774;SDS011;2913;51.120;6.772;2023-03-26T02:54:04;43.78;;;4.65;;
5774;SDS011;2913;51.120;6.772;2023-03-26T02:56:31;46.85;;;5.07;;
5774;SDS011;2913;51.120;6.772;2023-03-26T02:58:56;48.35;;;4.63;;
5774;SDS011;2913;51.120;6.772;2023-03-26T03:01:24;39.88;;;4.05;;
5774;SDS011;2913;51.120;6.772;2023-03-26T03:03:49;33.13;;;3.28;;
5774;SDS011;2913;51.120;6.772;2023-03-26T03:06:18;41.17;;;3.58;;
5774;SDS011;2913;51.120;6.772;2023-03-26T03:08:45;35.88;;;3.85;;
5774;SDS011;2913;51.120;6.772;2023-03-26T03:11:14;34.58;;;3.63;;
5774;SDS011;2913;51.120;6.772;2023-03-26T03:13:46;34.40;;;3.65;;
5774;SDS011;2913;51.120;6.772;2023-03-26T03:16:15;30.83;;;3.78;;
5774;SDS011;2913;51.120;6.772;2023-03-26T03:18:41;32.65;;;3.88;;
5774;SDS011;2913;51.120;6.772;2023-03-26T03:21:07;28.80;;;3.58;;
5774;SDS011;2913;51.120;6.772;2023-03-26T03:23:32;42.95;;;4.90;;
5774;SDS011;2913;51.120;6.772;2023-03-26T03:26:00;35.03;;;3.65;;
5774;SDS011;2913;51.120;6.772;2023-03-26T03:28:26;30.08;;;3.53;;
5774;SDS011;2913;51.120;6.772;2023-03-26T03:30:52;36.58;;;5.22;;
5774;SDS011;2913;51.120;6.772;2023-03-26T03:33:23;27.45;;;3.97;;
5774;SDS011;2913;51.120;6.772;2023-03-26T03:35:49;42.20;;;5.90;;
5774;SDS011;2913;51.120;6.772;2023-03-26T03:38:15;45.53;;;4.85;;
5774;SDS011;2913;51.120;6.772;2023-03-26T03:40:41;34.20;;;3.83;;
5774;SDS011;2913;51.120;6.772;2023-03-26T03:43:07;38.00;;;3.83;;
5774;SDS011;2913;51.120;6.772;2023-03-26T03:45:33;38.35;;;4.65;;
5774;SDS011;2913;51.120;6.772;2023-03-26T03:47:59;35.08;;;5.28;;
5774;SDS011;2913;51.120;6.772;2023-03-26T03:50:27;49.28;;;5.22;;
5774;SDS011;2913;51.120;6.772;2023-03-26T03:52:55;28.95;;;4.35;;
5774;SDS011;2913;51.120;6.772;2023-03-26T03:55:23;44.22;;;3.25;;
5774;SDS011;2913;51.120;6.772;2023-03-26T03:57:51;35.88;;;4.03;;
5774;SDS011;2913;51.120;6.772;2023-03-26T04:00:20;33.78;;;3.90;;
5774;SDS011;2913;51.120;6.772;2023-03-26T04:02:48;32.33;;;2.95;;
5774;SDS011;2913;51.120;6.772;2023-03-26T04:05:20;30.83;;;3.80;;
5774;SDS011;2913;51.120;6.772;2023-03-26T04:07:46;41.13;;;3.78;;
5774;SDS011;2913;51.120;6.772;2023-03-26T04:10:14;24.80;;;3.45;;
5774;SDS011;2913;51.120;6.772;2023-03-26T04:12:45;37.55;;;3.60;;
5774;SDS011;2913;51.120;6.772;2023-03-26T04:15:11;29.75;;;4.53;;
5774;SDS011;2913;51.120;6.772;2023-03-26T04:17:36;31.60;;;4.10;;
5774;SDS011;2913;51.120;6.772;2023-03-26T04:20:06;33.83;;;3.85;;
5774;SDS011;2913;51.120;6.772;2023-03-26T04:22:39;36.17;;;4.90;;
5774;SDS011;2913;51.120;6.772;2023-03-26T04:25:09;36.38;;;3.97;;
5774;SDS011;2913;51.120;6.772;2023-03-26T04:27:36;35.83;;;4.18;;
5774;SDS011;2913;51.120;6.772;2023-03-26T04:30:09;39.78;;;4.63;;
5774;SDS011;2913;51.120;6.772;2023-03-26T04:32:41;25.05;;;3.42;;
5774;SDS011;2913;51.120;6.772;2023-03-26T04:35:10;27.73;;;3.60;;
5774;SDS011;2913;51.120;6.772;2023-03-26T04:37:38;39.08;;;4.57;;
5774;SDS011;2913;51.120;6.772;2023-03-26T04:40:11;32.92;;;5.30;;
5774;SDS011;2913;51.120;6.772;2023-03-26T04:42:47;41.70;;;3.95;;
5774;SDS011;2913;51.120;6.772;2023-03-26T04:45:13;44.20;;;3.85;;
5774;SDS011;2913;51.120;6.772;2023-03-26T04:47:40;30.92;;;4.25;;
5774;SDS011;2913;51.120;6.772;2023-03-26T04:50:10;27.33;;;4.00;;
5774;SDS011;2913;51.120;6.772;2023-03-26T04:52:36;27.27;;;3.70;;
5774;SDS011;2913;51.120;6.772;2023-03-26T04:55:02;38.10;;;3.67;;
5774;SDS011;2913;51.120;6.772;2023-03-26T04:57:34;37.20;;;3.60;;
5774;SDS011;2913;51.120;6.772;2023-03-26T05:00:04;29.17;;;3.67;;
5774;SDS011;2913;51.120;6.772;2023-03-26T05:02:38;26.30;;;3.47;;
5774;SDS011;2913;51.120;6.772;2023-03-26T05:05:05;20.73;;;3.28;;
5774;SDS011;2913;51.120;6.772;2023-03-26T05:07:34;31.95;;;4.28;;
5774;SDS011;2913;51.120;6.772;2023-03-26T05:10:03;30.42;;;5.15;;
5774;SDS011;2913;51.120;6.772;2023-03-26T05:12:31;43.03;;;5.97;;
5774;SDS011;2913;51.120;6.772;2023-03-26T05:14:59;41.67;;;4.55;;
5774;SDS011;2913;51.120;6.772;2023-03-26T05:17:25;32.25;;;4.85;;
5774;SDS011;2913;51.120;6.772;2023-03-26T05:19:54;27.85;;;3.40;;
5774;SDS011;2913;51.120;6.772;2023-03-26T05:22:27;40.50;;;3.53;;
5774;SDS011;2913;51.120;6.772;2023-03-26T05:24:52;25.90;;;3.58;;
5774;SDS011;2913;51.120;6.772;2023-03-26T05:27:18;21.50;;;2.65;;
5774;SDS011;2913;51.120;6.772;2023-03-26T05:29:46;30.33;;;3.67;;
5774;SDS011;2913;51.120;6.772;2023-03-26T05:32:17;41.75;;;3.35;;
5774;SDS011;2913;51.120;6.772;2023-03-26T05:34:45;45.88;;;4.57;;
5774;SDS011;2913;51.120;6.772;2023-03-26T05:37:13;24.63;;;3.40;;
5774;SDS011;2913;51.120;6.772;2023-03-26T05:39:41;26.42;;;3.15;;
5774;SDS011;2913;51.120;6.772;2023-03-26T05:42:07;31.85;;;3.60;;
5774;SDS011;2913;51.120;6.772;2023-03-26T05:44:33;27.42;;;3.10;;
5774;SDS011;2913;51.120;6.772;2023-03-26T05:46:59;38.03;;;4.70;;
5774;SDS011;2913;51.120;6.772;2023-03-26T05:49:27;27.98;;;4.82;;
5774;SDS011;2913;51.120;6.772;2023-03-26T05:51:55;27.75;;;3.22;;
5774;SDS011;2913;51.120;6.772;2023-03-26T05:54:21;47.38;;;5.07;;
5774;SDS011;2913;51.120;6.772;2023-03-26T05:56:46;24.42;;;3.80;;
5774;SDS011;2913;51.120;6.772;2023-03-26T05:59:13;27.80;;;3.78;;
5774;SDS011;2913;51.120;6.772;2023-03-26T06:01:41;28.02;;;3.85;;
5774;SDS011;2913;51.120;6.772;2023-03-26T06:04:12;29.20;;;4.05;;
5774;SDS011;2913;51.120;6.772;2023-03-26T06:06:41;28.75;;;4.30;;
5774;SDS011;2913;51.120;6.772;2023-03-26T06:09:06;34.35;;;4.15;;
5774;SDS011;2913;51.120;6.772;2023-03-26T06:11:32;29.00;;;4.45;;
5774;SDS011;2913;51.120;6.772;2023-03-26T06:13:58;40.05;;;4.45;;
5774;SDS011;2913;51.120;6.772;2023-03-26T06:16:25;30.30;;;4.15;;
5774;SDS011;2913;51.120;6.772;2023-03-26T06:18:53;27.08;;;4.03;;
5774;SDS011;2913;51.120;6.772;2023-03-26T06:21:21;38.05;;;4.10;;
5774;SDS011;2913;51.120;6.772;2023-03-26T06:23:47;41.88;;;5.78;;
5774;SDS011;2913;51.120;6.772;2023-03-26T06:26:14;42.63;;;9.70;;
5774;SDS011;2913;51.120;6.772;2023-03-26T06:28:39;48.05;;;11.45;;
5774;SDS011;2913;51.120;6.772;2023-03-26T06:31:07;56.42;;;13.90;;
5774;SDS011;2913;51.120;6.772;2023-03-26T06:33:33;67.82;;;19.65;;
5774;SDS011;2913;51.120;6.772;2023-03-26T06:35:59;50.22;;;12.70;;
5774;SDS011;2913;51.120;6.772;2023-03-26T06:38:25;31.70;;;6.38;;
5774;SDS011;2913;51.120;6.772;2023-03-26T06:40:53;35.05;;;5.65;;
5774;SDS011;2913;51.120;6.772;2023-03-26T06:43:18;47.38;;;12.82;;
5774;SDS011;2913;51.120;6.772;2023-03-26T06:45:48;50.72;;;15.18;;
5774;SDS011;2913;51.120;6.772;2023-03-26T06:48:14;75.60;;;19.88;;
5774;SDS011;2913;51.120;6.772;2023-03-26T06:50:42;50.67;;;12.02;;
5774;SDS011;2913;51.120;6.772;2023-03-26T06:53:10;35.90;;;4.68;;
5774;SDS011;2913;51.120;6.772;2023-03-26T06:55:38;39.28;;;4.30;;
5774;SDS011;2913;51.120;6.772;2023-03-26T06:58:04;34.65;;;4.65;;
5774;SDS011;2913;51.120;6.772;2023-03-26T07:00:30;34.50;;;4.47;;
5774;SDS011;2913;51.120;6.772;2023-03-26T07:02:55;36.40;;;5.32;;
5774;SDS011;2913;51.120;6.772;2023-03-26T07:05:21;29.15;;;4.80;;
5774;SDS011;2913;51.120;6.772;2023-03-26T07:07:46;36.72;;;4.88;;
5774;SDS011;2913;51.120;6.772;2023-03-26T07:10:12;34.63;;;4.45;;
5774;SDS011;2913;51.120;6.772;2023-03-26T07:12:38;33.78;;;5.13;;
5774;SDS011;2913;51.120;6.772;2023-03-26T07:15:05;24.45;;;3.67;;
5774;SDS011;2913;51.120;6.772;2023-03-26T07:17:31;26.20;;;3.85;;
5774;SDS011;2913;51.120;6.772;2023-03-26T07:19:57;19.20;;;3.60;;
5774;SDS011;2913;51.120;6.772;2023-03-26T07:22:25;23.40;;;5.45;;
5774;SDS011;2913;51.120;6.772;2023-03-26T07:24:53;28.50;;;4.35;;
5774;SDS011;2913;51.120;6.772;2023-03-26T07:29:48;32.35;;;4.55;;
5774;SDS011;2913;51.120;6.772;2023-03-26T07:33:08;26.05;;;4.18;;
5774;SDS011;2913;51.120;6.772;2023-03-26T07:46:13;41.97;;;5.13;;
5774;SDS011;2913;51.120;6.772;2023-03-26T07:48:40;32.42;;;5.55;;
5774;SDS011;2913;51.120;6.772;2023-03-26T07:51:11;36.80;;;5.28;;
5774;SDS011;2913;51.120;6.772;2023-03-26T07:53:38;32.20;;;6.68;;
5774;SDS011;2913;51.120;6.772;2023-03-26T07:56:11;34.45;;;5.30;;
5774;SDS011;2913;51.120;6.772;2023-03-26T08:01:19;38.40;;;4.68;;
5774;SDS011;2913;51.120;6.772;2023-03-26T08:04:18;24.80;;;6.10;;
5774;SDS011;2913;51.120;6.772;2023-03-26T08:07:07;33.17;;;5.88;;
5774;SDS011;2913;51.120;6.772;2023-03-26T08:12:57;35.38;;;5.25;;
5774;SDS011;2913;51.120;6.772;2023-03-26T08:21:09;40.72;;;5.50;;
5774;SDS011;2913;51.120;6.772;2023-03-26T08:23:54;36.42;;;5.07;;
5774;SDS011;2913;51.120;6.772;2023-03-26T08:27:03;28.60;;;5.72;;
5774;SDS011;2913;51.120;6.772;2023-03-26T08:30:13;45.00;;;5.07;;
5774;SDS011;2913;51.120;6.772;2023-03-26T08:32:47;36.33;;;5.18;;
5774;SDS011;2913;51.120;6.772;2023-03-26T08:35:18;32.40;;;6.35;;
5774;SDS011;2913;51.120;6.772;2023-03-26T08:37:43;30.52;;;5.22;;
5774;SDS011;2913;51.120;6.772;2023-03-26T08:40:09;35.95;;;5.13;;
5774;SDS011;2913;51.120;6.772;2023-03-26T08:43:22;23.50;;;3.92;;
5774;SDS011;2913;51.120;6.772;2023-03-26T08:48:33;16.33;;;3.55;;
5774;SDS011;2913;51.120;6.772;2023-03-26T08:54:37;35.13;;;5.38;;
5774;SDS011;2913;51.120;6.772;2023-03-26T09:00:34;27.40;;;5.07;;
5774;SDS011;2913;51.120;6.772;2023-03-26T09:03:22;31.95;;;6.70;;
5774;SDS011;2913;51.120;6.772;2023-03-26T09:22:29;30.40;;;5.93;;
5774;SDS011;2913;51.120;6.772;2023-03-26T09:43:50;12.77;;;3.88;;
5774;SDS011;2913;51.120;6.772;2023-03-26T09:58:03;19.25;;;5.60;;
5774;SDS011;2913;51.120;6.772;2023-03-26T10:01:06;28.65;;;9.32;;
5774;SDS011;2913;51.120;6.772;2023-03-26T10:20:36;12.38;;;2.97;;
5774;SDS011;2913;51.120;6.772;2023-03-26T10:35:27;19.02;;;3.28;;
5774;SDS011;2913;51.120;6.772;2023-03-26T10:49:24;14.38;;;3.50;;
5774;SDS011;2913;51.120;6.772;2023-03-26T10:52:22;15.57;;;3.92;;
5774;SDS011;2913;51.120;6.772;2023-03-26T11:05:32;11.30;;;3.85;;
5774;SDS011;2913;51.120;6.772;2023-03-26T11:22:15;6.35;;;2.05;;
5774;SDS011;2913;51.120;6.772;2023-03-26T11:30:42;6.93;;;2.50;;
5774;SDS011;2913;51.120;6.772;2023-03-26T11:33:20;9.95;;;3.10;;
5774;SDS011;2913;51.120;6.772;2023-03-26T11:35:52;5.63;;;2.38;;
5774;SDS011;2913;51.120;6.772;2023-03-26T11:41:01;8.50;;;2.60;;
5774;SDS011;2913;51.120;6.772;2023-03-26T11:43:32;7.30;;;1.90;;
5774;SDS011;2913;51.120;6.772;2023-03-26T11:46:01;6.72;;;2.03;;
5774;SDS011;2913;51.120;6.772;2023-03-26T11:48:40;6.10;;;1.90;;
5774;SDS011;2913;51.120;6.772;2023-03-26T11:51:22;8.63;;;2.42;;
5774;SDS011;2913;51.120;6.772;2023-03-26T11:53:53;8.77;;;1.90;;
5774;SDS011;2913;51.120;6.772;2023-03-26T11:56:26;7.72;;;2.60;;
5774;SDS011;2913;51.120;6.772;2023-03-26T11:59:26;5.97;;;2.15;;
5774;SDS011;2913;51.120;6.772;2023-03-26T12:04:37;5.95;;;2.10;;
5774;SDS011;2913;51.120;6.772;2023-03-26T12:07:11;5.68;;;1.98;;
5774;SDS011;2913;51.120;6.772;2023-03-26T12:12:28;3.88;;;1.40;;
5774;SDS011;2913;51.120;6.772;2023-03-26T12:15:01;5.32;;;1.92;;
5774;SDS011;2913;51.120;6.772;2023-03-26T12:17:31;5.75;;;2.00;;
5774;SDS011;2913;51.120;6.772;2023-03-26T12:20:02;9.88;;;2.58;;
5774;SDS011;2913;51.120;6.772;2023-03-26T12:22:46;10.70;;;2.92;;
5774;SDS011;2913;51.120;6.772;2023-03-26T12:25:19;8.00;;;2.70;;
5774;SDS011;2913;51.120;6.772;2023-03-26T12:30:25;7.57;;;1.63;;
5774;SDS011;2913;51.120;6.772;2023-03-26T12:35:50;5.20;;;1.95;;
5774;SDS011;2913;51.120;6.772;2023-03-26T12:38:31;7.20;;;1.90;;
5774;SDS011;2913;51.120;6.772;2023-03-26T12:41:14;7.32;;;2.03;;
5774;SDS011;2913;51.120;6.772;2023-03-26T12:43:48;6.05;;;1.83;;
5774;SDS011;2913;51.120;6.772;2023-03-26T12:46:36;4.20;;;1.77;;
5774;SDS011;2913;51.120;6.772;2023-03-26T12:49:04;7.30;;;1.80;;
5774;SDS011;2913;51.120;6.772;2023-03-26T13:02:33;8.80;;;2.83;;
5774;SDS011;2913;51.120;6.772;2023-03-26T13:17:31;5.65;;;1.48;;
5774;SDS011;2913;51.120;6.772;2023-03-26T13:31:02;8.57;;;2.47;;
5774;SDS011;2913;51.120;6.772;2023-03-26T13:36:44;5.90;;;1.92;;
5774;SDS011;2913;51.120;6.772;2023-03-26T13:47:24;4.63;;;1.67;;
5774;SDS011;2913;51.120;6.772;2023-03-26T13:50:12;5.00;;;1.80;;
5774;SDS011;2913;51.120;6.772;2023-03-26T13:52:46;6.43;;;1.63;;
5774;SDS011;2913;51.120;6.772;2023-03-26T14:06:59;13.00;;;2.35;;
5774;SDS011;2913;51.120;6.772;2023-03-26T14:09:20;4.18;;;1.70;;
5774;SDS011;2913;51.120;6.772;2023-03-26T14:54:54;7.53;;;2.60;;
5774;SDS011;2913;51.120;6.772;2023-03-26T15:11:33;6.00;;;1.67;;
5774;SDS011;2913;51.120;6.772;2023-03-26T15:14:17;3.80;;;1.58;;
5774;SDS011;2913;51.120;6.772;2023-03-26T15:17:17;8.68;;;2.83;;
5774;SDS011;2913;51.120;6.772;2023-03-26T15:20:03;8.82;;;3.53;;
5774;SDS011;2913;51.120;6.772;2023-03-26T15:23:16;8.07;;;3.15;;
5774;SDS011;2913;51.120;6.772;2023-03-26T16:04:54;12.65;;;4.50;;
5774;SDS011;2913;51.120;6.772;2023-03-26T16:10:59;19.45;;;6.13;;
5774;SDS011;2913;51.120;6.772;2023-03-26T16:18:35;12.05;;;4.85;;
5774;SDS011;2913;51.120;6.772;2023-03-26T16:31:56;17.15;;;7.05;;
5774;SDS011;2913;51.120;6.772;2023-03-26T16:54:04;14.85;;;5.82;;
5774;SDS011;2913;51.120;6.772;2023-03-26T16:59:35;18.88;;;6.65;;
5774;SDS011;2913;51.120;6.772;2023-03-26T17:02:22;27.90;;;7.03;;
5774;SDS011;2913;51.120;6.772;2023-03-26T17:07:57;25.52;;;9.57;;
5774;SDS011;2913;51.120;6.772;2023-03-26T17:10:44;47.60;;;10.70;;
5774;SDS011;2913;51.120;6.772;2023-03-26T17:16:30;44.00;;;17.13;;
5774;SDS011;2913;51.120;6.772;2023-03-26T17:19:15;39.97;;;15.18;;
5774;SDS011;2913;51.120;6.772;2023-03-26T17:22:07;58.97;;;16.90;;
5774;SDS011;2913;51.120;6.772;2023-03-26T17:24:41;60.63;;;17.98;;
5774;SDS011;2913;51.120;6.772;2023-03-26T17:27:17;62.00;;;17.80;;
5774;SDS011;2913;51.120;6.772;2023-03-26T17:32:22;57.97;;;14.68;;
5774;SDS011;2913;51.120;6.772;2023-03-26T17:34:53;54.40;;;12.82;;
5774;SDS011;2913;51.120;6.772;2023-03-26T17:37:39;49.80;;;9.68;;
5774;SDS011;2913;51.120;6.772;2023-03-26T17:43:32;33.03;;;9.40;;
5774;SDS011;2913;51.120;6.772;2023-03-26T17:54:23;43.53;;;9.52;;
5774;SDS011;2913;51.120;6.772;2023-03-26T17:57:09;30.23;;;8.93;;
5774;SDS011;2913;51.120;6.772;2023-03-26T17:59:44;24.15;;;6.85;;
5774;SDS011;2913;51.120;6.772;2023-03-26T18:02:20;56.95;;;11.07;;
5774;SDS011;2913;51.120;6.772;2023-03-26T18:04:55;33.03;;;7.82;;
5774;SDS011;2913;51.120;6.772;2023-03-26T18:18:17;35.45;;;9.02;;
5774;SDS011;2913;51.120;6.772;2023-03-26T18:20:48;37.13;;;8.05;;
5774;SDS011;2913;51.120;6.772;2023-03-26T18:23:20;36.50;;;8.18;;
5774;SDS011;2913;51.120;6.772;2023-03-26T18:26:11;49.90;;;10.88;;
5774;SDS011;2913;51.120;6.772;2023-03-26T18:28:43;33.45;;;10.80;;
5774;SDS011;2913;51.120;6.772;2023-03-26T18:31:17;33.85;;;7.55;;
5774;SDS011;2913;51.120;6.772;2023-03-26T18:33:49;31.83;;;6.38;;
5774;SDS011;2913;51.120;6.772;2023-03-26T18:36:19;24.42;;;7.10;;
5774;SDS011;2913;51.120;6.772;2023-03-26T18:38:48;30.33;;;7.50;;
5774;SDS011;2913;51.120;6.772;2023-03-26T18:41:47;31.50;;;6.35;;
5774;SDS011;2913;51.120;6.772;2023-03-26T18:44:10;49.63;;;8.18;;
5774;SDS011;2913;51.120;6.772;2023-03-26T18:46:38;27.98;;;6.68;;
5774;SDS011;2913;51.120;6.772;2023-03-26T18:49:05;18.83;;;4.68;;
5774;SDS011;2913;51.120;6.772;2023-03-26T18:51:31;24.67;;;4.15;;
5774;SDS011;2913;51.120;6.772;2023-03-26T18:54:01;18.38;;;4.65;;
5774;SDS011;2913;51.120;6.772;2023-03-26T18:56:40;31.48;;;6.43;;
5774;SDS011;2913;51.120;6.772;2023-03-26T18:59:29;35.58;;;6.25;;
5774;SDS011;2913;51.120;6.772;2023-03-26T19:02:02;29.77;;;4.75;;
5774;SDS011;2913;51.120;6.772;2023-03-26T19:04:34;31.33;;;4.90;;
5774;SDS011;2913;51.120;6.772;2023-03-26T19:07:04;35.70;;;5.68;;
5774;SDS011;2913;51.120;6.772;2023-03-26T19:09:36;22.33;;;5.28;;
5774;SDS011;2913;51.120;6.772;2023-03-26T19:12:04;36.75;;;8.13;;
5774;SDS011;2913;51.120;6.772;2023-03-26T19:14:35;25.25;;;5.18;;
5774;SDS011;2913;51.120;6.772;2023-03-26T19:17:40;25.95;;;6.38;;
5774;SDS011;2913;51.120;6.772;2023-03-26T19:20:15;31.90;;;7.20;;
5774;SDS011;2913;51.120;6.772;2023-03-26T19:22:50;18.33;;;4.80;;
5774;SDS011;2913;51.120;6.772;2023-03-26T19:25:38;42.67;;;5.72;;
5774;SDS011;2913;51.120;6.772;2023-03-26T19:28:13;27.98;;;4.13;;
5774;SDS011;2913;51.120;6.772;2023-03-26T19:30:41;28.35;;;5.30;;
5774;SDS011;2913;51.120;6.772;2023-03-26T19:33:17;21.35;;;5.15;;
5774;SDS011;2913;51.120;6.772;2023-03-26T19:35:45;18.63;;;3.50;;
5774;SDS011;2913;51.120;6.772;2023-03-26T19:40:44;54.50;;;8.43;;
5774;SDS011;2913;51.120;6.772;2023-03-26T19:43:13;30.45;;;3.85;;
5774;SDS011;2913;51.120;6.772;2023-03-26T19:45:41;20.88;;;3.15;;
5774;SDS011;2913;51.120;6.772;2023-03-26T19:48:07;21.98;;;4.13;;
5774;SDS011;2913;51.120;6.772;2023-03-26T19:50:35;31.30;;;5.22;;
5774;SDS011;2913;51.120;6.772;2023-03-26T19:55:56;21.85;;;3.83;;
5774;SDS011;2913;51.120;6.772;2023-03-26T19:58:23;27.58;;;4.63;;
5774;SDS011;2913;51.120;6.772;2023-03-26T20:00:52;36.80;;;7.20;;
5774;SDS011;2913;51.120;6.772;2023-03-26T20:03:27;23.30;;;3.67;;
5774;SDS011;2913;51.120;6.772;2023-03-26T20:06:00;28.20;;;6.18;;
5774;SDS011;2913;51.120;6.772;2023-03-26T20:08:26;25.50;;;4.47;;
5774;SDS011;2913;51.120;6.772;2023-03-26T20:10:54;24.02;;;4.65;;
5774;SDS011;2913;51.120;6.772;2023-03-26T20:13:20;35.55;;;4.63;;
5774;SDS011;2913;51.120;6.772;2023-03-26T20:15:48;34.35;;;5.78;;
5774;SDS011;2913;51.120;6.772;2023-03-26T20:18:25;23.88;;;3.78;;
5774;SDS011;2913;51.120;6.772;2023-03-26T20:20:56;17.77;;;2.90;;
5774;SDS011;2913;51.120;6.772;2023-03-26T20:23:23;16.90;;;3.05;;
5774;SDS011;2913;51.120;6.772;2023-03-26T20:25:52;24.92;;;3.63;;
5774;SDS011;2913;51.120;6.772;2023-03-26T20:28:19;13.32;;;2.35;;
5774;SDS011;2913;51.120;6.772;2023-03-26T20:30:48;24.50;;;5.25;;
5774;SDS011;2913;51.120;6.772;2023-03-26T20:33:19;16.63;;;2.35;;
5774;SDS011;2913;51.120;6.772;2023-03-26T20:35:49;20.80;;;3.15;;
5774;SDS011;2913;51.120;6.772;2023-03-26T20:38:15;37.95;;;4.80;;
5774;SDS011;2913;51.120;6.772;2023-03-26T20:40:41;24.55;;;3.70;;
5774;SDS011;2913;51.120;6.772;2023-03-26T20:43:13;23.40;;;3.15;;
5774;SDS011;2913;51.120;6.772;2023-03-26T20:45:42;19.98;;;2.30;;
5774;SDS011;2913;51.120;6.772;2023-03-26T20:48:09;15.50;;;2.17;;
5774;SDS011;2913;51.120;6.772;2023-03-26T20:50:37;10.95;;;2.20;;
5774;SDS011;2913;51.120;6.772;2023-03-26T20:53:14;30.02;;;3.63;;
5774;SDS011;2913;51.120;6.772;2023-03-26T20:55:44;21.70;;;3.65;;
5774;SDS011;2913;51.120;6.772;2023-03-26T20:58:16;14.25;;;2.78;;
5774;SDS011;2913;51.120;6.772;2023-03-26T21:00:46;16.13;;;2.85;;
5774;SDS011;2913;51.120;6.772;2023-03-26T21:03:13;17.83;;;2.35;;
5774;SDS011;2913;51.120;6.772;2023-03-26T21:05:43;26.17;;;2.17;;
5774;SDS011;2913;51.120;6.772;2023-03-26T21:08:13;7.40;;;1.52;;
5774;SDS011;2913;51.120;6.772;2023-03-26T21:10:41;15.37;;;1.90;;
5774;SDS011;2913;51.120;6.772;2023-03-26T21:15:36;11.25;;;2.85;;
5774;SDS011;2913;51.120;6.772;2023-03-26T21:18:02;14.95;;;1.98;;
5774;SDS011;2913;51.120;6.772;2023-03-26T21:20:28;27.70;;;3.00;;
5774;SDS011;2913;51.120;6.772;2023-03-26T21:23:04;11.77;;;1.67;;
5774;SDS011;2913;51.120;6.772;2023-03-26T21:28:48;13.48;;;2.38;;
5774;SDS011;2913;51.120;6.772;2023-03-26T21:31:15;23.50;;;3.60;;
5774;SDS011;2913;51.120;6.772;2023-03-26T21:33:43;27.95;;;2.88;;
5774;SDS011;2913;51.120;6.772;2023-03-26T21:36:09;34.75;;;2.30;;
5774;SDS011;2913;51.120;6.772;2023-03-26T21:38:35;21.67;;;3.13;;
5774;SDS011;2913;51.120;6.772;2023-03-26T21:41:01;25.00;;;3.03;;
5774;SDS011;2913;51.120;6.772;2023-03-26T21:43:27;22.88;;;3.95;;
5774;SDS011;2913;51.120;6.772;2023-03-26T21:45:53;13.70;;;1.55;;
5774;SDS011;2913;51.120;6.772;2023-03-26T21:48:19;15.40;;;2.78;;
5774;SDS011;2913;51.120;6.772;2023-03-26T21:50:45;14.35;;;1.92;;
5774;SDS011;2913;51.120;6.772;2023-03-26T21:53:12;19.02;;;3.35;;
5774;SDS011;2913;51.120;6.772;2023-03-26T22:01:27;15.30;;;1.95;;
5774;SDS011;2913;51.120;6.772;2023-03-26T22:07:18;11.60;;;1.90;;
5774;SDS011;2913;51.120;6.772;2023-03-26T22:10:05;21.50;;;4.38;;
5774;SDS011;2913;51.120;6.772;2023-03-26T22:12:36;20.20;;;2.92;;
5774;SDS011;2913;51.120;6.772;2023-03-26T22:15:02;16.63;;;2.13;;
5774;SDS011;2913;51.120;6.772;2023-03-26T22:17:32;26.92;;;3.45;;
5774;SDS011;2913;51.120;6.772;2023-03-26T22:20:00;16.80;;;2.17;;
5774;SDS011;2913;51.120;6.772;2023-03-26T22:22:32;23.92;;;2.67;;
5774;SDS011;2913;51.120;6.772;2023-03-26T22:24:58;15.57;;;2.42;;
5774;SDS011;2913;51.120;6.772;2023-03-26T22:27:25;15.18;;;2.25;;
5774;SDS011;2913;51.120;6.772;2023-03-26T22:29:53;19.65;;;2.28;;
5774;SDS011;2913;51.120;6.772;2023-03-26T22:32:19;13.57;;;2.17;;
5774;SDS011;2913;51.120;6.772;2023-03-26T22:34:45;26.23;;;3.08;;
5774;SDS011;2913;51.120;6.772;2023-03-26T22:37:10;25.25;;;3.75;;